Time;durP1;ratioP1;P1;durP2;ratioP2;P2;SDS_P1;SDS_P2;PMS_P1;PMS_P2;Temp;Humidity;BMP_temperature;BMP_pressure;BME280_temperature;BME280_humidity;BME280_pressure;Samples;Min_cycle;Max_cycle;Signal;HPM_P1;HPM_P2
2023/06/11 00:02:06;;;;;;;;;11.00;11.00;;;;;;;;5086088;27;45487;-75
2023/06/11 00:04:34;;;;;;;;;9.00;9.00;;;;;;;;5089334;27;45295;-75
2023/06/11 00:07:00;;;;;;;;;12.00;11.50;;;;;;;;5079475;27;45518;-75
2023/06/11 00:09:26;;;;;;;;;16.00;13.00;;;;;;;;5083584;27;46846;-75
2023/06/11 00:11:53;;;;;;;;;15.00;14.00;;;;;;;;5096296;27;47193;-75
2023/06/11 00:14:19;;;;;;;;;14.00;12.75;;;;;;;;5100603;27;45356;-75
2023/06/11 00:16:45;;;;;;;;;11.50;11.50;;;;;;;;5100014;27;45289;-75
2023/06/11 00:19:11;;;;;;;;;13.50;13.25;;;;;;;;5081051;27;45281;-75
2023/06/11 00:21:40;;;;;;;;;14.25;13.75;;;;;;;;5094407;27;47591;-75
2023/06/11 00:24:06;;;;;;;;;11.50;11.25;;;;;;;;5092994;27;45494;-75
2023/06/11 00:26:33;;;;;;;;;11.50;10.25;;;;;;;;5081324;27;45409;-75
2023/06/11 00:28:58;;;;;;;;;9.25;9.00;;;;;;;;5088336;27;45464;-75
2023/06/11 00:31:23;;;;;;;;;10.67;10.00;;;;;;;;5080157;27;45346;-75
2023/06/11 00:33:48;;;;;;;;;8.67;8.33;;;;;;;;5091594;27;47102;-75
2023/06/11 00:36:13;;;;;;;;;10.00;10.00;;;;;;;;5092771;27;45849;-75
2023/06/11 00:38:40;;;;;;;;;6.50;6.50;;;;;;;;5083730;27;45484;-75
2023/06/11 00:41:06;;;;;;;;;10.25;9.25;;;;;;;;5079775;28;45695;-75
2023/06/11 00:43:31;;;;;;;;;9.00;8.00;;;;;;;;5096597;27;45359;-75
2023/06/11 00:45:56;;;;;;;;;7.50;7.50;;;;;;;;5096007;27;45483;-74
2023/06/11 00:48:22;;;;;;;;;8.25;8.25;;;;;;;;5079873;27;46183;-74
2023/06/11 00:50:48;;;;;;;;;8.33;8.33;;;;;;;;5095293;27;46357;-74
2023/06/11 00:53:14;;;;;;;;;7.75;7.00;;;;;;;;5092677;27;45942;-74
2023/06/11 00:55:39;;;;;;;;;9.00;7.00;;;;;;;;5085373;27;45279;-74
2023/06/11 00:58:13;;;;;;;;;10.00;8.00;;;;;;;;5090995;27;46902;-74
2023/06/11 01:00:39;;;;;;;;;8.00;7.00;;;;;;;;5091891;27;45647;-74
2023/06/11 01:03:08;;;;;;;;;9.75;8.25;;;;;;;;5086363;27;45694;-74
2023/06/11 01:05:36;;;;;;;;;7.75;7.00;;;;;;;;5093857;27;45460;-74
2023/06/11 01:08:01;;;;;;;;;10.75;9.50;;;;;;;;5082683;27;45642;-74
2023/06/11 01:10:29;;;;;;;;;8.00;8.00;;;;;;;;5087626;27;46897;-74
2023/06/11 01:12:54;;;;;;;;;7.00;7.00;;;;;;;;5095589;27;45444;-74
2023/06/11 01:15:19;;;;;;;;;9.00;7.00;;;;;;;;5100475;27;45269;-74
2023/06/11 01:18:00;;;;;;;;;7.67;6.67;;;;;;;;5098408;27;45492;-74
2023/06/11 01:20:34;;;;;;;;;4.75;4.75;;;;;;;;5089033;27;48572;-75
2023/06/11 01:23:04;;;;;;;;;10.75;9.25;;;;;;;;5086306;27;45432;-74
2023/06/11 01:25:48;;;;;;;;;7.25;6.75;;;;;;;;5090371;27;45419;-74
2023/06/11 01:28:27;;;;;;;;;6.50;6.25;;;;;;;;5084779;27;46398;-74
2023/06/11 01:30:55;;;;;;;;;8.00;7.75;;;;;;;;5084009;27;47378;-74
2023/06/11 01:33:24;;;;;;;;;8.50;8.00;;;;;;;;5093879;27;45463;-74
2023/06/11 01:35:49;;;;;;;;;8.75;8.00;;;;;;;;5078278;27;45336;-74
2023/06/11 01:38:15;;;;;;;;;9.00;8.25;;;;;;;;5081330;27;45196;-74
2023/06/11 01:40:40;;;;;;;;;8.00;8.00;;;;;;;;5088982;27;47161;-75
2023/06/11 01:43:05;;;;;;;;;10.50;9.00;;;;;;;;5095320;27;45887;-74
2023/06/11 01:45:32;;;;;;;;;7.67;7.00;;;;;;;;5079671;27;45273;-74
2023/06/11 01:47:58;;;;;;;;;8.00;8.00;;;;;;;;5079400;27;45440;-74
2023/06/11 01:50:23;;;;;;;;;8.25;7.75;;;;;;;;5084626;27;45544;-74
2023/06/11 01:52:48;;;;;;;;;5.33;5.00;;;;;;;;5082110;27;45704;-74
2023/06/11 01:55:14;;;;;;;;;8.75;6.75;;;;;;;;5084143;27;45276;-74
2023/06/11 01:57:41;;;;;;;;;6.75;6.00;;;;;;;;5085352;27;46862;-74
2023/06/11 02:00:10;;;;;;;;;6.00;5.50;;;;;;;;5085922;27;46343;-74
2023/06/11 02:02:35;;;;;;;;;8.00;6.75;;;;;;;;5082893;27;45370;-74
2023/06/11 02:05:00;;;;;;;;;10.00;8.00;;;;;;;;5086629;27;45219;-74
2023/06/11 02:07:27;;;;;;;;;7.00;7.00;;;;;;;;5087836;27;45582;-74
2023/06/11 02:09:52;;;;;;;;;9.00;9.00;;;;;;;;5085554;27;45650;-74
2023/06/11 02:12:17;;;;;;;;;7.25;7.00;;;;;;;;5085982;27;45279;-74
2023/06/11 02:14:42;;;;;;;;;7.00;6.00;;;;;;;;5092639;27;45273;-74
2023/06/11 02:17:09;;;;;;;;;6.25;5.75;;;;;;;;5086236;27;45467;-74
2023/06/11 02:19:35;;;;;;;;;7.00;7.00;;;;;;;;5085731;27;46228;-74
2023/06/11 02:22:00;;;;;;;;;6.00;5.75;;;;;;;;5080610;27;45633;-74
2023/06/11 02:24:26;;;;;;;;;7.33;7.00;;;;;;;;5095699;27;45539;-74
2023/06/11 02:26:51;;;;;;;;;8.75;8.75;;;;;;;;5085250;27;45683;-74
2023/06/11 02:29:16;;;;;;;;;8.33;8.00;;;;;;;;5096941;27;46476;-74
2023/06/11 02:31:41;;;;;;;;;7.00;7.00;;;;;;;;5086728;27;45791;-74
2023/06/11 02:34:06;;;;;;;;;10.00;8.33;;;;;;;;5095261;27;45448;-74
2023/06/11 02:36:32;;;;;;;;;8.67;8.33;;;;;;;;5091566;27;47006;-74
2023/06/11 02:38:57;;;;;;;;;8.00;7.00;;;;;;;;5083318;27;47335;-74
2023/06/11 02:41:22;;;;;;;;;10.00;9.33;;;;;;;;5095981;27;45450;-74
2023/06/11 02:43:47;;;;;;;;;10.33;9.33;;;;;;;;5094737;27;45463;-74
2023/06/11 02:46:12;;;;;;;;;6.67;6.33;;;;;;;;5087551;27;45669;-74
2023/06/11 02:48:38;;;;;;;;;8.33;7.33;;;;;;;;5090439;27;46307;-74
2023/06/11 02:51:03;;;;;;;;;8.00;7.67;;;;;;;;5083729;27;45319;-74
2023/06/11 02:53:28;;;;;;;;;9.00;8.75;;;;;;;;5085804;27;45394;-74
2023/06/11 02:55:53;;;;;;;;;6.67;6.67;;;;;;;;5087458;27;45484;-74
2023/06/11 02:58:19;;;;;;;;;9.25;7.75;;;;;;;;5095793;27;46686;-74
2023/06/11 03:00:44;;;;;;;;;9.00;8.00;;;;;;;;5084580;27;45172;-74
2023/06/11 03:03:09;;;;;;;;;7.50;6.75;;;;;;;;5094747;27;45257;-74
2023/06/11 03:05:35;;;;;;;;;7.25;6.25;;;;;;;;5079848;27;47073;-74
2023/06/11 03:08:00;;;;;;;;;8.00;7.00;;;;;;;;5089880;27;48328;-74
2023/06/11 03:10:27;;;;;;;;;8.00;7.33;;;;;;;;5084028;27;45512;-74
2023/06/11 03:12:53;;;;;;;;;9.50;9.25;;;;;;;;5090933;27;45486;-74
2023/06/11 03:15:18;;;;;;;;;8.25;8.25;;;;;;;;5094774;27;45421;-70
2023/06/11 03:17:43;;;;;;;;;9.00;8.75;;;;;;;;5089126;27;45476;-73
2023/06/11 03:20:09;;;;;;;;;9.33;8.67;;;;;;;;5084891;27;45407;-74
2023/06/11 03:22:34;;;;;;;;;8.75;8.25;;;;;;;;5086420;27;45558;-74
2023/06/11 03:24:59;;;;;;;;;13.50;11.25;;;;;;;;5096553;27;45364;-74
2023/06/11 03:27:25;;;;;;;;;11.50;10.50;;;;;;;;5090744;27;45402;-74
2023/06/11 03:29:50;;;;;;;;;11.67;11.67;;;;;;;;5086302;27;45887;-74
2023/06/11 03:32:15;;;;;;;;;11.00;10.00;;;;;;;;5082295;27;45325;-74
2023/06/11 03:34:42;;;;;;;;;13.50;11.00;;;;;;;;5092446;27;45539;-74
2023/06/11 03:37:07;;;;;;;;;12.50;10.25;;;;;;;;5091306;27;46153;-74
2023/06/11 03:39:33;;;;;;;;;10.00;9.33;;;;;;;;5087293;27;45275;-74
2023/06/11 03:41:58;;;;;;;;;12.75;12.00;;;;;;;;5092232;27;45288;-74
2023/06/11 03:44:23;;;;;;;;;10.00;10.00;;;;;;;;5093284;27;46111;-74
2023/06/11 03:46:48;;;;;;;;;12.25;10.25;;;;;;;;5084805;27;45427;-74
2023/06/11 03:49:14;;;;;;;;;10.75;10.75;;;;;;;;5088084;27;45159;-74
2023/06/11 03:51:39;;;;;;;;;14.33;12.33;;;;;;;;5093522;27;45260;-74
2023/06/11 03:54:04;;;;;;;;;13.75;12.25;;;;;;;;5086245;27;45335;-74
2023/06/11 03:56:30;;;;;;;;;14.00;12.75;;;;;;;;5092852;27;46633;-74
2023/06/11 03:58:55;;;;;;;;;13.25;12.50;;;;;;;;5095175;27;45275;-74
2023/06/11 04:01:20;;;;;;;;;12.00;11.00;;;;;;;;5089986;27;45515;-74
2023/06/11 04:03:45;;;;;;;;;9.75;9.25;;;;;;;;5089858;27;46455;-74
2023/06/11 04:06:11;;;;;;;;;11.75;10.75;;;;;;;;5089026;27;45424;-74
2023/06/11 04:08:36;;;;;;;;;14.33;13.67;;;;;;;;5093662;27;45547;-74
2023/06/11 04:11:01;;;;;;;;;14.25;13.25;;;;;;;;5090064;27;45485;-74
2023/06/11 04:13:27;;;;;;;;;16.50;15.25;;;;;;;;5093273;27;46064;-74
2023/06/11 04:15:52;;;;;;;;;10.33;9.33;;;;;;;;5087226;27;47932;-73
2023/06/11 04:18:17;;;;;;;;;14.67;13.33;;;;;;;;5087080;27;46666;-73
2023/06/11 04:20:42;;;;;;;;;14.67;14.33;;;;;;;;5088056;27;45673;-73
2023/06/11 04:23:08;;;;;;;;;14.25;14.25;;;;;;;;5093257;27;46127;-73
2023/06/11 04:25:36;;;;;;;;;13.00;12.50;;;;;;;;5087974;27;47098;-73
2023/06/11 04:28:01;;;;;;;;;14.25;13.25;;;;;;;;5094373;27;45689;-74
2023/06/11 04:30:26;;;;;;;;;12.00;12.00;;;;;;;;5082157;27;45284;-74
2023/06/11 04:32:54;;;;;;;;;13.75;13.25;;;;;;;;5093452;27;45289;-74
2023/06/11 04:35:21;;;;;;;;;15.75;14.00;;;;;;;;5089800;27;46151;-73
2023/06/11 04:37:47;;;;;;;;;12.50;11.75;;;;;;;;5091621;27;45275;-74
2023/06/11 04:40:13;;;;;;;;;13.75;12.00;;;;;;;;5081248;27;45912;-74
2023/06/11 04:42:41;;;;;;;;;13.50;13.00;;;;;;;;5089122;27;46286;-73
2023/06/11 04:45:07;;;;;;;;;17.25;14.00;;;;;;;;5083022;27;46899;-74
2023/06/11 04:47:34;;;;;;;;;15.25;14.25;;;;;;;;5090675;27;45487;-74
2023/06/11 04:50:03;;;;;;;;;14.75;14.25;;;;;;;;5085206;27;46988;-74
2023/06/11 04:52:31;;;;;;;;;11.25;11.00;;;;;;;;5081124;27;45501;-76
2023/06/11 04:54:56;;;;;;;;;15.25;14.75;;;;;;;;5079932;27;46208;-73
2023/06/11 04:57:23;;;;;;;;;18.00;15.75;;;;;;;;5087208;27;45350;-74
2023/06/11 04:59:49;;;;;;;;;17.50;16.75;;;;;;;;5084062;27;45267;-73
2023/06/11 05:02:15;;;;;;;;;14.00;13.25;;;;;;;;5084256;27;45519;-74
2023/06/11 05:04:40;;;;;;;;;13.00;12.00;;;;;;;;5084387;27;46012;-74
2023/06/11 05:07:05;;;;;;;;;17.00;14.00;;;;;;;;5082208;27;45661;-73
2023/06/11 05:09:30;;;;;;;;;17.00;15.67;;;;;;;;5092055;27;45765;-74
2023/06/11 05:11:55;;;;;;;;;12.00;12.00;;;;;;;;5089107;27;45330;-74
2023/06/11 05:14:21;;;;;;;;;14.67;13.00;;;;;;;;5094152;27;45391;-74
2023/06/11 05:16:46;;;;;;;;;13.67;12.67;;;;;;;;5092826;27;45283;-74
2023/06/11 05:19:11;;;;;;;;;12.00;12.00;;;;;;;;5090295;27;45269;-74
2023/06/11 05:21:37;;;;;;;;;16.00;13.00;;;;;;;;5086675;27;45641;-74
2023/06/11 05:24:17;;;;;;;;;14.25;14.00;;;;;;;;5085884;27;47018;-74
2023/06/11 05:26:42;;;;;;;;;13.00;13.00;;;;;;;;5090091;27;45784;-74
2023/06/11 05:29:07;;;;;;;;;16.25;14.50;;;;;;;;5096815;27;45372;-74
2023/06/11 05:31:35;;;;;;;;;14.33;13.67;;;;;;;;5092479;27;45437;-74
2023/06/11 05:34:01;;;;;;;;;14.25;13.25;;;;;;;;5084611;27;48094;-74
2023/06/11 05:36:27;;;;;;;;;11.00;10.00;;;;;;;;5093351;27;46107;-74
2023/06/11 05:38:52;;;;;;;;;14.25;12.75;;;;;;;;5079224;27;45547;-74
2023/06/11 05:41:18;;;;;;;;;14.00;13.75;;;;;;;;5085733;27;45973;-74
2023/06/11 05:43:43;;;;;;;;;16.25;15.25;;;;;;;;5086818;27;45944;-74
2023/06/11 05:46:08;;;;;;;;;16.67;15.67;;;;;;;;5082521;27;45488;-74
2023/06/11 05:48:33;;;;;;;;;16.00;15.25;;;;;;;;5089959;27;45510;-74
2023/06/11 05:50:58;;;;;;;;;17.67;16.33;;;;;;;;5090829;27;46425;-74
2023/06/11 05:53:24;;;;;;;;;19.00;16.67;;;;;;;;5089117;27;46916;-74
2023/06/11 05:55:49;;;;;;;;;15.33;14.67;;;;;;;;5090277;27;45385;-74
2023/06/11 05:58:14;;;;;;;;;14.25;13.25;;;;;;;;5082762;27;45624;-74
2023/06/11 06:00:42;;;;;;;;;17.33;16.00;;;;;;;;5089855;27;46796;-74
2023/06/11 06:03:08;;;;;;;;;13.75;13.00;;;;;;;;5095771;27;48053;-74
2023/06/11 06:05:33;;;;;;;;;17.33;15.00;;;;;;;;5086756;27;45313;-74
2023/06/11 06:07:58;;;;;;;;;20.25;18.00;;;;;;;;5088235;27;45393;-74
2023/06/11 06:10:23;;;;;;;;;16.67;16.00;;;;;;;;5084981;27;45628;-74
2023/06/11 06:12:48;;;;;;;;;16.25;14.75;;;;;;;;5079626;27;47333;-74
2023/06/11 06:15:14;;;;;;;;;16.00;15.33;;;;;;;;5093480;27;45277;-75
2023/06/11 06:17:39;;;;;;;;;17.00;14.75;;;;;;;;5097650;27;45294;-74
2023/06/11 06:20:05;;;;;;;;;18.00;17.33;;;;;;;;5106824;27;46515;-74
2023/06/11 06:22:31;;;;;;;;;15.25;14.75;;;;;;;;5092333;27;47247;-74
2023/06/11 06:24:56;;;;;;;;;16.75;15.75;;;;;;;;5083929;27;45263;-74
2023/06/11 06:27:21;;;;;;;;;16.25;15.00;;;;;;;;5093253;27;45465;-74
2023/06/11 06:29:46;;;;;;;;;16.67;14.33;;;;;;;;5096958;27;45419;-74
2023/06/11 06:32:12;;;;;;;;;13.00;12.00;;;;;;;;5090733;27;47238;-74
2023/06/11 06:34:37;;;;;;;;;17.67;17.33;;;;;;;;5090127;27;45233;-74
2023/06/11 06:37:02;;;;;;;;;15.33;14.00;;;;;;;;5082233;27;45437;-74
2023/06/11 06:39:28;;;;;;;;;15.00;14.50;;;;;;;;5089602;27;46382;-74
2023/06/11 06:41:53;;;;;;;;;14.25;14.25;;;;;;;;5084044;27;46119;-75
2023/06/11 06:44:18;;;;;;;;;17.00;15.50;;;;;;;;5096894;27;45394;-74
2023/06/11 06:46:44;;;;;;;;;16.75;16.50;;;;;;;;5092988;27;45627;-74
2023/06/11 06:49:09;;;;;;;;;20.25;19.25;;;;;;;;5089623;27;45500;-74
2023/06/11 06:51:37;;;;;;;;;17.00;15.33;;;;;;;;5093918;27;45408;-74
2023/06/11 06:54:02;;;;;;;;;15.00;14.50;;;;;;;;5090611;27;45567;-74
2023/06/11 06:56:27;;;;;;;;;17.33;15.67;;;;;;;;5081128;27;45322;-74
2023/06/11 06:58:52;;;;;;;;;16.00;14.33;;;;;;;;5089834;27;45449;-74
2023/06/11 07:01:18;;;;;;;;;17.00;16.25;;;;;;;;5087957;27;46713;-75
2023/06/11 07:03:43;;;;;;;;;18.00;17.00;;;;;;;;5088207;27;45303;-74
2023/06/11 07:06:08;;;;;;;;;23.25;21.25;;;;;;;;5092384;27;45527;-77
2023/06/11 07:08:33;;;;;;;;;21.00;20.00;;;;;;;;5090865;27;46964;-76
2023/06/11 07:10:59;;;;;;;;;18.50;18.00;;;;;;;;5095940;27;45270;-75
2023/06/11 07:13:24;;;;;;;;;22.00;21.33;;;;;;;;5095827;27;45191;-74
2023/06/11 07:15:50;;;;;;;;;22.00;19.50;;;;;;;;5091513;27;46221;-74
2023/06/11 07:18:16;;;;;;;;;19.25;17.25;;;;;;;;5090988;27;46581;-73
2023/06/11 07:20:41;;;;;;;;;22.00;19.50;;;;;;;;5092524;27;48123;-74
2023/06/11 07:23:06;;;;;;;;;20.75;19.00;;;;;;;;5083413;27;46330;-72
2023/06/11 07:25:32;;;;;;;;;22.50;21.00;;;;;;;;5088854;27;45222;-79
2023/06/11 07:28:01;;;;;;;;;22.25;22.00;;;;;;;;5084124;27;45393;-74
2023/06/11 07:30:29;;;;;;;;;22.50;20.75;;;;;;;;5090859;27;46238;-74
2023/06/11 07:32:55;;;;;;;;;17.75;17.00;;;;;;;;5089315;27;45495;-74
2023/06/11 07:35:20;;;;;;;;;22.00;19.25;;;;;;;;5086501;27;45425;-74
2023/06/11 07:37:46;;;;;;;;;18.25;17.50;;;;;;;;5081836;27;47194;-79
2023/06/11 07:40:12;;;;;;;;;20.00;18.50;;;;;;;;5080964;27;46335;-75
2023/06/11 07:42:37;;;;;;;;;25.00;21.75;;;;;;;;5091585;27;45431;-76
2023/06/11 07:45:02;;;;;;;;;20.00;18.75;;;;;;;;5083660;27;45735;-79
2023/06/11 07:47:28;;;;;;;;;19.50;18.75;;;;;;;;5086062;27;45794;-72
2023/06/11 07:49:53;;;;;;;;;18.67;18.33;;;;;;;;5083343;27;45679;-76
2023/06/11 07:52:18;;;;;;;;;18.00;16.00;;;;;;;;5089297;27;45357;-75
2023/06/11 07:54:44;;;;;;;;;16.33;15.33;;;;;;;;5082815;27;45447;-74
2023/06/11 07:57:09;;;;;;;;;16.25;16.25;;;;;;;;5088292;27;45524;-75
2023/06/11 07:59:36;;;;;;;;;18.33;17.67;;;;;;;;5087993;27;45597;-76
2023/06/11 08:02:02;;;;;;;;;22.25;20.00;;;;;;;;5084056;27;45474;-74
2023/06/11 08:04:27;;;;;;;;;16.75;15.50;;;;;;;;5087254;27;45428;-74
2023/06/11 08:06:53;;;;;;;;;13.67;12.67;;;;;;;;5096249;27;45272;-74
2023/06/11 08:09:18;;;;;;;;;19.00;17.50;;;;;;;;5089493;27;46638;-72
2023/06/11 08:11:43;;;;;;;;;15.67;14.33;;;;;;;;5084557;27;45464;-74
2023/06/11 08:14:09;;;;;;;;;16.75;13.50;;;;;;;;5083390;27;45371;-78
2023/06/11 08:16:34;;;;;;;;;15.75;15.25;;;;;;;;5092576;27;45409;-73
2023/06/11 08:19:00;;;;;;;;;18.25;16.75;;;;;;;;5083645;27;47203;-74
2023/06/11 08:21:25;;;;;;;;;14.50;14.50;;;;;;;;5093339;27;45740;-73
2023/06/11 08:23:51;;;;;;;;;15.50;14.50;;;;;;;;5082616;27;45527;-74
2023/06/11 08:26:17;;;;;;;;;13.75;13.25;;;;;;;;5085983;27;45776;-74
2023/06/11 08:28:42;;;;;;;;;16.75;16.50;;;;;;;;5094588;27;45974;-74
2023/06/11 08:31:08;;;;;;;;;15.25;14.25;;;;;;;;5097582;27;45639;-74
2023/06/11 08:33:33;;;;;;;;;17.25;16.25;;;;;;;;5092840;27;45417;-73
2023/06/11 08:35:58;;;;;;;;;12.25;12.25;;;;;;;;5088623;27;45517;-74
2023/06/11 08:38:24;;;;;;;;;12.67;12.67;;;;;;;;5090288;27;46442;-74
2023/06/11 08:40:50;;;;;;;;;11.75;11.00;;;;;;;;5090154;27;45413;-73
2023/06/11 08:43:15;;;;;;;;;17.75;15.25;;;;;;;;5086318;27;45732;-74
2023/06/11 08:45:41;;;;;;;;;14.50;11.75;;;;;;;;5087257;27;45577;-73
2023/06/11 08:48:08;;;;;;;;;15.50;15.25;;;;;;;;5077782;27;45693;-74
2023/06/11 08:50:33;;;;;;;;;12.00;11.75;;;;;;;;5095565;27;45539;-75
2023/06/11 08:53:01;;;;;;;;;14.50;13.75;;;;;;;;5088808;27;45298;-75
2023/06/11 08:55:29;;;;;;;;;13.00;13.00;;;;;;;;5082726;27;45712;-74
2023/06/11 08:57:55;;;;;;;;;14.00;14.00;;;;;;;;5093770;27;45516;-73
2023/06/11 09:00:21;;;;;;;;;16.25;15.00;;;;;;;;5088360;27;45416;-74
2023/06/11 09:02:46;;;;;;;;;16.00;13.50;;;;;;;;5087254;27;45541;-74
2023/06/11 09:05:12;;;;;;;;;15.00;13.50;;;;;;;;5087044;27;45326;-74
2023/06/11 09:07:37;;;;;;;;;18.33;18.00;;;;;;;;5090582;27;45583;-74
2023/06/11 09:10:03;;;;;;;;;17.00;16.00;;;;;;;;5084312;27;45514;-74
2023/06/11 09:12:29;;;;;;;;;13.25;12.50;;;;;;;;5095085;27;45463;-75
2023/06/11 09:14:54;;;;;;;;;17.33;16.00;;;;;;;;5090712;27;45599;-74
2023/06/11 09:17:19;;;;;;;;;16.00;16.00;;;;;;;;5090751;27;45443;-74
2023/06/11 09:19:45;;;;;;;;;15.50;14.50;;;;;;;;5085224;27;45550;-75
2023/06/11 09:22:10;;;;;;;;;17.50;15.75;;;;;;;;5088715;27;45505;-75
2023/06/11 09:24:35;;;;;;;;;18.33;18.33;;;;;;;;5083380;27;45477;-75
2023/06/11 09:27:00;;;;;;;;;17.33;16.00;;;;;;;;5092112;27;48073;-75
2023/06/11 09:29:27;;;;;;;;;3.00;2.00;;;;;;;;5091536;27;46256;-74
2023/06/11 09:32:06;;;;;;;;;19.00;17.75;;;;;;;;5079137;27;45273;-75
2023/06/11 09:34:31;;;;;;;;;20.00;19.25;;;;;;;;5092525;27;45317;-74
2023/06/11 09:36:56;;;;;;;;;19.25;18.50;;;;;;;;5089031;27;45437;-75
2023/06/11 09:39:22;;;;;;;;;16.00;15.67;;;;;;;;5089886;27;45438;-75
2023/06/11 09:41:51;;;;;;;;;20.25;20.00;;;;;;;;5096113;27;45585;-75
2023/06/11 09:44:17;;;;;;;;;23.00;20.50;;;;;;;;5085633;27;45574;-75
2023/06/11 09:46:43;;;;;;;;;23.50;22.50;;;;;;;;5089691;27;45556;-75
2023/06/11 09:49:08;;;;;;;;;24.25;22.75;;;;;;;;5100651;27;45781;-75
2023/06/11 09:51:35;;;;;;;;;20.50;19.75;;;;;;;;5093857;27;45339;-75
2023/06/11 09:54:00;;;;;;;;;22.50;22.00;;;;;;;;5090138;27;45384;-75
2023/06/11 09:56:26;;;;;;;;;22.25;20.75;;;;;;;;5084866;27;45408;-75
2023/06/11 09:58:51;;;;;;;;;22.00;22.00;;;;;;;;5094618;27;45361;-75
2023/06/11 10:01:17;;;;;;;;;19.50;17.75;;;;;;;;5084621;27;45416;-75
2023/06/11 10:03:42;;;;;;;;;25.25;24.50;;;;;;;;5086639;27;45397;-75
2023/06/11 10:06:11;;;;;;;;;27.25;23.75;;;;;;;;5099530;27;45323;-75
2023/06/11 10:08:37;;;;;;;;;25.50;24.50;;;;;;;;5094184;27;45508;-75
2023/06/11 10:11:03;;;;;;;;;25.00;23.00;;;;;;;;5095682;27;46791;-75
2023/06/11 10:13:29;;;;;;;;;21.75;19.75;;;;;;;;5093047;27;45258;-75
2023/06/11 10:15:55;;;;;;;;;24.00;23.00;;;;;;;;5089564;27;45626;-75
2023/06/11 10:18:23;;;;;;;;;18.50;18.25;;;;;;;;5097710;27;45347;-74
2023/06/11 10:20:52;;;;;;;;;19.75;19.75;;;;;;;;5082173;27;45437;-75
2023/06/11 10:23:18;;;;;;;;;27.00;24.50;;;;;;;;5097608;27;46227;-76
2023/06/11 10:25:51;;;;;;;;;25.00;24.50;;;;;;;;5090796;27;47868;-75
2023/06/11 10:28:16;;;;;;;;;24.75;23.75;;;;;;;;5097274;27;45436;-75
2023/06/11 10:30:50;;;;;;;;;26.00;24.00;;;;;;;;5086109;27;45594;-75
2023/06/11 10:33:16;;;;;;;;;25.75;23.25;;;;;;;;5091898;27;45217;-76
2023/06/11 10:35:46;;;;;;;;;26.50;24.00;;;;;;;;5094789;27;46029;-75
2023/06/11 10:38:18;;;;;;;;;26.25;25.00;;;;;;;;5094383;27;45610;-74
2023/06/11 10:40:43;;;;;;;;;27.75;24.50;;;;;;;;5085471;27;45314;-74
2023/06/11 10:43:15;;;;;;;;;25.75;25.25;;;;;;;;5088234;27;45452;-75
2023/06/11 10:45:41;;;;;;;;;26.25;24.75;;;;;;;;5087795;27;47623;-74
2023/06/11 10:48:06;;;;;;;;;26.50;24.75;;;;;;;;5092401;27;45425;-75
2023/06/11 10:50:31;;;;;;;;;28.50;24.50;;;;;;;;5097188;27;45498;-75
2023/06/11 10:53:06;;;;;;;;;28.25;25.00;;;;;;;;5086796;27;45415;-75
2023/06/11 10:55:32;;;;;;;;;25.75;24.75;;;;;;;;5096128;27;45529;-75
2023/06/11 10:57:58;;;;;;;;;27.75;25.25;;;;;;;;5087440;27;45750;-75
2023/06/11 11:00:24;;;;;;;;;19.25;19.25;;;;;;;;5098524;27;45247;-75
2023/06/11 11:02:50;;;;;;;;;25.75;25.00;;;;;;;;5089284;27;45412;-74
2023/06/11 11:05:16;;;;;;;;;25.50;23.50;;;;;;;;5087815;27;47331;-74
2023/06/11 11:07:44;;;;;;;;;29.25;25.25;;;;;;;;5082710;27;45409;-75
2023/06/11 11:10:11;;;;;;;;;27.00;26.00;;;;;;;;5095094;27;45349;-75
2023/06/11 11:12:43;;;;;;;;;27.50;26.00;;;;;;;;5082631;27;45209;-74
2023/06/11 11:15:10;;;;;;;;;24.75;22.50;;;;;;;;5085279;27;47368;-75
2023/06/11 11:17:35;;;;;;;;;26.50;22.75;;;;;;;;5091308;27;45722;-74
2023/06/11 11:20:01;;;;;;;;;25.50;23.75;;;;;;;;5096344;27;45257;-74
2023/06/11 11:22:26;;;;;;;;;27.00;26.00;;;;;;;;5092168;27;45567;-74
2023/06/11 11:24:52;;;;;;;;;27.25;24.00;;;;;;;;5084925;27;45399;-74
2023/06/11 11:27:18;;;;;;;;;22.00;21.25;;;;;;;;5085154;27;45216;-74
2023/06/11 11:29:43;;;;;;;;;27.50;26.50;;;;;;;;5082189;27;45262;-74
2023/06/11 11:32:08;;;;;;;;;23.75;23.00;;;;;;;;5085628;27;45709;-74
2023/06/11 11:34:38;;;;;;;;;25.50;23.00;;;;;;;;5088448;27;45535;-74
2023/06/11 11:37:03;;;;;;;;;23.00;22.75;;;;;;;;5087743;27;45713;-74
2023/06/11 11:39:31;;;;;;;;;23.25;22.50;;;;;;;;5080156;27;45749;-74
2023/06/11 11:41:56;;;;;;;;;23.75;22.50;;;;;;;;5088357;27;45203;-74
2023/06/11 11:44:24;;;;;;;;;23.75;22.50;;;;;;;;5084195;27;47470;-74
2023/06/11 11:46:54;;;;;;;;;26.25;23.25;;;;;;;;5086966;27;45555;-74
2023/06/11 11:49:19;;;;;;;;;20.25;19.50;;;;;;;;5091805;27;45389;-74
2023/06/11 11:51:52;;;;;;;;;22.50;20.50;;;;;;;;5097879;27;45483;-74
2023/06/11 11:54:17;;;;;;;;;25.00;22.25;;;;;;;;5088577;27;46072;-74
2023/06/11 11:56:43;;;;;;;;;20.75;19.75;;;;;;;;5080863;27;45558;-74
2023/06/11 11:59:18;;;;;;;;;23.00;22.33;;;;;;;;5090461;27;45363;-74
2023/06/11 12:01:56;;;;;;;;;17.00;16.25;;;;;;;;5095658;27;45501;-74
2023/06/11 12:04:22;;;;;;;;;24.50;23.25;;;;;;;;5085548;27;46387;-74
2023/06/11 12:06:47;;;;;;;;;22.25;21.75;;;;;;;;5088651;27;46063;-76
2023/06/11 12:09:12;;;;;;;;;25.00;23.00;;;;;;;;5083883;27;46867;-76
2023/06/11 12:11:38;;;;;;;;;18.00;18.00;;;;;;;;5089876;27;45530;-76
2023/06/11 12:14:03;;;;;;;;;26.67;24.67;;;;;;;;5093863;27;46422;-76
2023/06/11 12:16:28;;;;;;;;;20.50;19.75;;;;;;;;5095468;27;45620;-80
2023/06/11 12:18:54;;;;;;;;;20.50;19.75;;;;;;;;5087206;27;45413;-77
2023/06/11 12:21:19;;;;;;;;;23.75;21.25;;;;;;;;5085812;27;46108;-81
2023/06/11 12:23:44;;;;;;;;;18.67;18.33;;;;;;;;5087467;27;47119;-80
2023/06/11 12:26:10;;;;;;;;;20.33;19.67;;;;;;;;5089018;27;45598;-79
2023/06/11 12:28:35;;;;;;;;;19.75;19.25;;;;;;;;5096479;27;45470;-80
2023/06/11 12:31:00;;;;;;;;;19.67;19.33;;;;;;;;5093196;27;45673;-76
2023/06/11 12:33:25;;;;;;;;;20.00;19.00;;;;;;;;5091128;27;46153;-75
2023/06/11 12:35:50;;;;;;;;;20.67;19.67;;;;;;;;5086096;27;45408;-74
2023/06/11 12:38:17;;;;;;;;;25.25;23.50;;;;;;;;5090615;27;45582;-75
2023/06/11 12:40:42;;;;;;;;;23.50;21.50;;;;;;;;5081738;27;45345;-73
2023/06/11 12:43:07;;;;;;;;;24.00;21.00;;;;;;;;5089114;27;45540;-78
2023/06/11 12:45:37;;;;;;;;;38.33;33.67;;;;;;;;5092448;27;45459;-78
2023/06/11 12:48:02;;;;;;;;;30.75;28.75;;;;;;;;5086162;27;45515;-74
2023/06/11 12:50:27;;;;;;;;;28.50;26.00;;;;;;;;5091808;27;46880;-75
2023/06/11 12:52:53;;;;;;;;;49.67;40.33;;;;;;;;5087884;27;46043;-72
2023/06/11 12:55:18;;;;;;;;;32.25;29.25;;;;;;;;5080533;27;212247;-82
2023/06/11 13:01:14;;;;;;;;;;;;;;;;;;1931124;27;258213871;-76
2023/06/11 13:03:39;;;;;;;;;46.75;39.25;;;;;;;;4396864;27;5859153;-74
2023/06/11 13:06:07;;;;;;;;;44.75;38.00;;;;;;;;5122413;27;8930;-78
2023/06/11 13:08:32;;;;;;;;;41.25;35.25;;;;;;;;5118264;27;8844;-78
2023/06/11 13:10:58;;;;;;;;;51.00;40.50;;;;;;;;5061712;27;1066610;-78
2023/06/11 13:13:23;;;;;;;;;50.25;40.25;;;;;;;;5118917;27;8814;-82
2023/06/11 13:15:48;;;;;;;;;49.75;40.00;;;;;;;;5120274;27;16308;-78
2023/06/11 13:18:14;;;;;;;;;50.00;42.00;;;;;;;;5120003;27;8789;-84
2023/06/11 13:20:39;;;;;;;;;56.25;44.25;;;;;;;;5126749;27;10426;-80
2023/06/11 13:23:05;;;;;;;;;55.00;44.75;;;;;;;;5122833;27;8895;-80
2023/06/11 13:25:30;;;;;;;;;52.25;44.00;;;;;;;;5107997;27;45517;-84
2023/06/11 13:27:55;;;;;;;;;57.33;45.67;;;;;;;;5088268;27;45323;-70
2023/06/11 13:30:21;;;;;;;;;57.50;47.00;;;;;;;;5082518;27;45514;-77
2023/06/11 13:32:46;;;;;;;;;60.25;47.50;;;;;;;;5084169;27;45146;-76
2023/06/11 13:35:12;;;;;;;;;27.50;19.50;;;;;;;;5086229;27;45270;-76
2023/06/11 13:37:37;;;;;;;;;49.25;40.25;;;;;;;;5087467;27;46134;-76
2023/06/11 13:40:03;;;;;;;;;31.25;29.50;;;;;;;;5089786;27;45688;-77
2023/06/11 13:42:28;;;;;;;;;5.00;4.25;;;;;;;;5088330;27;45434;-78
2023/06/11 13:44:53;;;;;;;;;55.33;42.67;;;;;;;;5086999;27;47080;-78
2023/06/11 13:47:18;;;;;;;;;43.67;36.33;;;;;;;;5093399;27;45482;-85
2023/06/11 13:49:44;;;;;;;;;30.33;26.67;;;;;;;;5090917;27;45314;-76
2023/06/11 13:52:09;;;;;;;;;54.00;41.67;;;;;;;;5081584;27;45638;-74
2023/06/11 13:54:34;;;;;;;;;51.50;41.25;;;;;;;;5108281;27;44808;-78
2023/06/11 13:56:59;;;;;;;;;68.33;53.67;;;;;;;;5095431;27;45400;-73
2023/06/11 14:06:30;;;;;;;;;;;;;;;;;;793978;27;276270465;-74
2023/06/11 14:08:56;;;;;;;;;53.33;41.67;;;;;;;;180295;27;138089781;-77
2023/06/11 14:11:21;;;;;;;;;51.50;41.75;;;;;;;;2985331;27;14519756;-75
2023/06/11 14:13:46;;;;;;;;;53.00;45.00;;;;;;;;4956409;27;1917027;-76
2023/06/11 14:16:11;;;;;;;;;67.33;49.33;;;;;;;;5102780;27;28311;-77
2023/06/11 14:18:37;;;;;;;;;68.25;51.75;;;;;;;;5107786;27;28667;-78
2023/06/11 14:21:02;;;;;;;;;71.33;54.00;;;;;;;;5105016;27;28351;-77
2023/06/11 14:23:27;;;;;;;;;76.75;62.25;;;;;;;;5119605;27;43257;-76
2023/06/11 14:25:52;;;;;;;;;70.00;55.00;;;;;;;;5102671;27;43926;-78
2023/06/11 14:28:18;;;;;;;;;76.67;59.00;;;;;;;;5099331;27;45465;-75